sensor_id;sensor_type;location;lat;lon;timestamp;P1;durP1;ratioP1;P2;durP2;ratioP2
31730;SDS011;18310;55.586;12.286;2022-08-19T00:00:03;64.80;;;22.80;;
31730;SDS011;18310;55.586;12.286;2022-08-19T00:03:10;49.67;;;25.60;;
31730;SDS011;18310;55.586;12.286;2022-08-19T00:06:14;48.05;;;25.15;;
31730;SDS011;18310;55.586;12.286;2022-08-19T00:09:21;70.85;;;25.92;;
31730;SDS011;18310;55.586;12.286;2022-08-19T00:12:26;74.03;;;26.92;;
31730;SDS011;18310;55.586;12.286;2022-08-19T00:15:30;71.70;;;28.10;;
31730;SDS011;18310;55.586;12.286;2022-08-19T00:18:35;47.97;;;22.33;;
31730;SDS011;18310;55.586;12.286;2022-08-19T00:21:38;48.95;;;19.15;;
31730;SDS011;18310;55.586;12.286;2022-08-19T00:24:42;47.75;;;20.25;;
31730;SDS011;18310;55.586;12.286;2022-08-19T00:27:51;73.45;;;20.90;;
31730;SDS011;18310;55.586;12.286;2022-08-19T00:30:54;51.63;;;21.93;;
31730;SDS011;18310;55.586;12.286;2022-08-19T00:33:59;43.92;;;22.08;;
31730;SDS011;18310;55.586;12.286;2022-08-19T00:37:02;56.72;;;22.42;;
31730;SDS011;18310;55.586;12.286;2022-08-19T00:40:09;61.38;;;18.92;;
31730;SDS011;18310;55.586;12.286;2022-08-19T00:43:14;92.47;;;21.40;;
31730;SDS011;18310;55.586;12.286;2022-08-19T00:46:24;95.22;;;21.17;;
31730;SDS011;18310;55.586;12.286;2022-08-19T00:49:30;39.40;;;21.02;;
31730;SDS011;18310;55.586;12.286;2022-08-19T00:52:39;141.50;;;22.90;;
31730;SDS011;18310;55.586;12.286;2022-08-19T00:55:48;149.50;;;22.13;;
31730;SDS011;18310;55.586;12.286;2022-08-19T00:58:55;105.38;;;22.40;;
31730;SDS011;18310;55.586;12.286;2022-08-19T01:02:00;70.53;;;22.33;;
31730;SDS011;18310;55.586;12.286;2022-08-19T01:05:06;56.08;;;21.15;;
31730;SDS011;18310;55.586;12.286;2022-08-19T01:08:16;53.95;;;23.83;;
31730;SDS011;18310;55.586;12.286;2022-08-19T01:11:21;68.57;;;21.75;;
31730;SDS011;18310;55.586;12.286;2022-08-19T01:17:28;39.10;;;15.77;;
31730;SDS011;18310;55.586;12.286;2022-08-19T01:20:33;57.80;;;18.55;;
31730;SDS011;18310;55.586;12.286;2022-08-19T01:23:38;61.05;;;19.05;;
31730;SDS011;18310;55.586;12.286;2022-08-19T01:26:45;59.08;;;18.98;;
31730;SDS011;18310;55.586;12.286;2022-08-19T01:29:49;94.05;;;19.58;;
31730;SDS011;18310;55.586;12.286;2022-08-19T01:32:53;48.33;;;17.45;;
31730;SDS011;18310;55.586;12.286;2022-08-19T01:36:03;82.07;;;18.15;;
31730;SDS011;18310;55.586;12.286;2022-08-19T01:39:11;75.38;;;16.83;;
31730;SDS011;18310;55.586;12.286;2022-08-19T01:42:18;74.93;;;17.50;;
31730;SDS011;18310;55.586;12.286;2022-08-19T01:45:31;57.85;;;14.73;;
31730;SDS011;18310;55.586;12.286;2022-08-19T01:48:36;49.95;;;15.35;;
31730;SDS011;18310;55.586;12.286;2022-08-19T01:51:43;48.60;;;14.70;;
31730;SDS011;18310;55.586;12.286;2022-08-19T01:54:48;37.85;;;15.25;;
31730;SDS011;18310;55.586;12.286;2022-08-19T01:57:52;27.70;;;13.80;;
31730;SDS011;18310;55.586;12.286;2022-08-19T02:01:02;30.75;;;13.82;;
31730;SDS011;18310;55.586;12.286;2022-08-19T02:04:10;28.95;;;14.23;;
31730;SDS011;18310;55.586;12.286;2022-08-19T02:07:13;31.15;;;13.85;;
31730;SDS011;18310;55.586;12.286;2022-08-19T02:10:19;22.45;;;13.77;;
31730;SDS011;18310;55.586;12.286;2022-08-19T02:13:24;27.02;;;13.80;;
31730;SDS011;18310;55.586;12.286;2022-08-19T02:16:29;28.40;;;14.73;;
31730;SDS011;18310;55.586;12.286;2022-08-19T02:19:32;25.35;;;14.70;;
31730;SDS011;18310;55.586;12.286;2022-08-19T02:22:39;25.17;;;14.60;;
31730;SDS011;18310;55.586;12.286;2022-08-19T02:25:46;27.10;;;14.07;;
31730;SDS011;18310;55.586;12.286;2022-08-19T02:28:50;25.52;;;14.45;;
31730;SDS011;18310;55.586;12.286;2022-08-19T02:31:54;32.88;;;14.93;;
31730;SDS011;18310;55.586;12.286;2022-08-19T02:34:57;27.20;;;15.33;;
31730;SDS011;18310;55.586;12.286;2022-08-19T02:38:00;33.70;;;15.65;;
31730;SDS011;18310;55.586;12.286;2022-08-19T02:41:24;27.92;;;14.13;;
31730;SDS011;18310;55.586;12.286;2022-08-19T02:44:30;23.58;;;13.40;;
31730;SDS011;18310;55.586;12.286;2022-08-19T02:47:33;32.70;;;16.33;;
31730;SDS011;18310;55.586;12.286;2022-08-19T02:50:37;28.17;;;15.55;;
31730;SDS011;18310;55.586;12.286;2022-08-19T02:53:53;32.22;;;14.82;;
31730;SDS011;18310;55.586;12.286;2022-08-19T02:56:59;32.78;;;15.63;;
31730;SDS011;18310;55.586;12.286;2022-08-19T03:00:03;37.80;;;16.67;;
31730;SDS011;18310;55.586;12.286;2022-08-19T03:03:09;32.38;;;16.33;;
31730;SDS011;18310;55.586;12.286;2022-08-19T03:09:18;29.98;;;14.20;;
31730;SDS011;18310;55.586;12.286;2022-08-19T03:12:24;27.13;;;15.75;;
31730;SDS011;18310;55.586;12.286;2022-08-19T03:15:27;27.60;;;15.73;;
31730;SDS011;18310;55.586;12.286;2022-08-19T03:18:31;28.63;;;14.32;;
31730;SDS011;18310;55.586;12.286;2022-08-19T03:21:35;25.15;;;14.43;;
31730;SDS011;18310;55.586;12.286;2022-08-19T03:24:38;31.23;;;15.70;;
31730;SDS011;18310;55.586;12.286;2022-08-19T03:27:43;25.38;;;14.98;;
31730;SDS011;18310;55.586;12.286;2022-08-19T03:30:56;28.63;;;15.02;;
31730;SDS011;18310;55.586;12.286;2022-08-19T03:34:02;29.45;;;14.45;;
31730;SDS011;18310;55.586;12.286;2022-08-19T03:37:09;28.83;;;15.50;;
31730;SDS011;18310;55.586;12.286;2022-08-19T03:40:14;34.17;;;15.27;;
31730;SDS011;18310;55.586;12.286;2022-08-19T03:43:19;34.30;;;16.55;;
31730;SDS011;18310;55.586;12.286;2022-08-19T03:46:23;34.35;;;18.38;;
31730;SDS011;18310;55.586;12.286;2022-08-19T03:49:29;38.72;;;19.02;;
31730;SDS011;18310;55.586;12.286;2022-08-19T03:52:34;37.00;;;19.08;;
31730;SDS011;18310;55.586;12.286;2022-08-19T03:55:39;41.33;;;20.50;;
31730;SDS011;18310;55.586;12.286;2022-08-19T03:58:45;35.35;;;21.02;;
31730;SDS011;18310;55.586;12.286;2022-08-19T04:01:48;32.83;;;21.27;;
31730;SDS011;18310;55.586;12.286;2022-08-19T04:04:52;39.88;;;22.90;;
31730;SDS011;18310;55.586;12.286;2022-08-19T04:07:56;38.00;;;21.13;;
31730;SDS011;18310;55.586;12.286;2022-08-19T04:14:04;36.67;;;19.42;;
31730;SDS011;18310;55.586;12.286;2022-08-19T04:17:08;32.13;;;19.65;;
31730;SDS011;18310;55.586;12.286;2022-08-19T04:20:12;32.38;;;20.73;;
31730;SDS011;18310;55.586;12.286;2022-08-19T04:23:15;34.42;;;22.23;;
31730;SDS011;18310;55.586;12.286;2022-08-19T04:26:20;37.15;;;23.20;;
31730;SDS011;18310;55.586;12.286;2022-08-19T04:29:28;38.22;;;22.73;;
31730;SDS011;18310;55.586;12.286;2022-08-19T04:32:31;30.25;;;21.58;;
31730;SDS011;18310;55.586;12.286;2022-08-19T04:35:40;41.65;;;23.45;;
31730;SDS011;18310;55.586;12.286;2022-08-19T04:38:46;33.83;;;24.13;;
31730;SDS011;18310;55.586;12.286;2022-08-19T04:41:50;39.22;;;24.27;;
31730;SDS011;18310;55.586;12.286;2022-08-19T04:45:13;37.50;;;24.73;;
31730;SDS011;18310;55.586;12.286;2022-08-19T04:48:18;35.88;;;24.10;;
31730;SDS011;18310;55.586;12.286;2022-08-19T04:51:28;33.75;;;23.05;;
31730;SDS011;18310;55.586;12.286;2022-08-19T04:54:32;40.10;;;25.40;;
31730;SDS011;18310;55.586;12.286;2022-08-19T04:57:39;38.72;;;24.98;;
31730;SDS011;18310;55.586;12.286;2022-08-19T05:00:44;37.92;;;23.85;;
31730;SDS011;18310;55.586;12.286;2022-08-19T05:03:47;29.75;;;20.75;;
31730;SDS011;18310;55.586;12.286;2022-08-19T05:06:51;28.90;;;21.33;;
31730;SDS011;18310;55.586;12.286;2022-08-19T05:10:01;36.63;;;23.17;;
31730;SDS011;18310;55.586;12.286;2022-08-19T05:13:06;33.17;;;21.77;;
31730;SDS011;18310;55.586;12.286;2022-08-19T05:16:13;35.95;;;22.98;;
31730;SDS011;18310;55.586;12.286;2022-08-19T05:19:18;37.35;;;24.13;;
31730;SDS011;18310;55.586;12.286;2022-08-19T05:22:39;39.60;;;22.25;;
31730;SDS011;18310;55.586;12.286;2022-08-19T05:25:43;34.58;;;21.13;;
31730;SDS011;18310;55.586;12.286;2022-08-19T05:28:47;34.95;;;22.42;;
31730;SDS011;18310;55.586;12.286;2022-08-19T05:31:56;33.78;;;20.25;;
31730;SDS011;18310;55.586;12.286;2022-08-19T05:35:00;31.05;;;22.15;;
31730;SDS011;18310;55.586;12.286;2022-08-19T05:38:04;32.03;;;20.20;;
31730;SDS011;18310;55.586;12.286;2022-08-19T05:41:08;29.45;;;21.02;;
31730;SDS011;18310;55.586;12.286;2022-08-19T05:44:14;30.98;;;21.67;;
31730;SDS011;18310;55.586;12.286;2022-08-19T05:47:20;34.85;;;22.45;;
31730;SDS011;18310;55.586;12.286;2022-08-19T05:50:24;34.97;;;22.42;;
31730;SDS011;18310;55.586;12.286;2022-08-19T05:53:27;27.38;;;20.25;;
31730;SDS011;18310;55.586;12.286;2022-08-19T05:56:31;31.40;;;21.33;;
31730;SDS011;18310;55.586;12.286;2022-08-19T05:59:37;31.70;;;21.48;;
31730;SDS011;18310;55.586;12.286;2022-08-19T06:02:42;32.53;;;22.10;;
31730;SDS011;18310;55.586;12.286;2022-08-19T06:05:45;29.45;;;21.20;;
31730;SDS011;18310;55.586;12.286;2022-08-19T06:08:52;30.88;;;20.65;;
31730;SDS011;18310;55.586;12.286;2022-08-19T06:11:56;27.83;;;20.60;;
31730;SDS011;18310;55.586;12.286;2022-08-19T06:15:01;32.95;;;21.05;;
31730;SDS011;18310;55.586;12.286;2022-08-19T06:18:12;26.45;;;19.20;;
31730;SDS011;18310;55.586;12.286;2022-08-19T06:21:16;26.60;;;18.42;;
31730;SDS011;18310;55.586;12.286;2022-08-19T06:24:21;31.35;;;20.20;;
31730;SDS011;18310;55.586;12.286;2022-08-19T06:27:26;30.58;;;19.55;;
31730;SDS011;18310;55.586;12.286;2022-08-19T06:30:30;28.50;;;20.10;;
31730;SDS011;18310;55.586;12.286;2022-08-19T06:33:35;25.77;;;19.23;;
31730;SDS011;18310;55.586;12.286;2022-08-19T06:36:42;29.10;;;18.77;;
31730;SDS011;18310;55.586;12.286;2022-08-19T06:39:49;27.00;;;19.38;;
31730;SDS011;18310;55.586;12.286;2022-08-19T06:42:54;23.80;;;17.88;;
31730;SDS011;18310;55.586;12.286;2022-08-19T06:46:00;24.65;;;18.88;;
31730;SDS011;18310;55.586;12.286;2022-08-19T06:49:08;30.20;;;19.40;;
31730;SDS011;18310;55.586;12.286;2022-08-19T06:52:15;30.52;;;18.73;;
31730;SDS011;18310;55.586;12.286;2022-08-19T06:55:18;27.48;;;19.55;;
31730;SDS011;18310;55.586;12.286;2022-08-19T06:58:22;28.60;;;20.67;;
31730;SDS011;18310;55.586;12.286;2022-08-19T07:01:26;28.30;;;19.70;;
31730;SDS011;18310;55.586;12.286;2022-08-19T07:04:32;22.83;;;17.42;;
31730;SDS011;18310;55.586;12.286;2022-08-19T07:07:37;24.52;;;16.83;;
31730;SDS011;18310;55.586;12.286;2022-08-19T07:10:47;24.65;;;17.67;;
31730;SDS011;18310;55.586;12.286;2022-08-19T07:13:51;25.25;;;17.17;;
31730;SDS011;18310;55.586;12.286;2022-08-19T07:16:55;25.17;;;17.10;;
31730;SDS011;18310;55.586;12.286;2022-08-19T07:20:00;26.13;;;17.45;;
31730;SDS011;18310;55.586;12.286;2022-08-19T07:23:09;24.92;;;18.38;;
31730;SDS011;18310;55.586;12.286;2022-08-19T07:26:17;22.83;;;16.95;;
31730;SDS011;18310;55.586;12.286;2022-08-19T07:29:29;24.55;;;18.40;;
31730;SDS011;18310;55.586;12.286;2022-08-19T07:32:35;19.55;;;15.63;;
31730;SDS011;18310;55.586;12.286;2022-08-19T07:35:40;19.10;;;14.57;;
31730;SDS011;18310;55.586;12.286;2022-08-19T07:38:44;19.73;;;15.27;;
31730;SDS011;18310;55.586;12.286;2022-08-19T07:41:50;19.85;;;15.20;;
31730;SDS011;18310;55.586;12.286;2022-08-19T07:44:53;24.70;;;15.38;;
31730;SDS011;18310;55.586;12.286;2022-08-19T07:47:57;19.60;;;14.73;;
31730;SDS011;18310;55.586;12.286;2022-08-19T07:51:03;18.35;;;14.10;;
31730;SDS011;18310;55.586;12.286;2022-08-19T07:54:09;21.92;;;14.20;;
31730;SDS011;18310;55.586;12.286;2022-08-19T08:00:16;23.00;;;14.07;;
31730;SDS011;18310;55.586;12.286;2022-08-19T08:03:25;19.60;;;14.70;;
31730;SDS011;18310;55.586;12.286;2022-08-19T08:06:45;18.05;;;14.63;;
31730;SDS011;18310;55.586;12.286;2022-08-19T08:10:06;22.20;;;15.20;;
31730;SDS011;18310;55.586;12.286;2022-08-19T08:13:21;17.35;;;13.60;;
31730;SDS011;18310;55.586;12.286;2022-08-19T08:16:26;20.92;;;14.45;;
31730;SDS011;18310;55.586;12.286;2022-08-19T08:19:32;23.52;;;13.07;;
31730;SDS011;18310;55.586;12.286;2022-08-19T08:22:37;19.42;;;13.75;;
31730;SDS011;18310;55.586;12.286;2022-08-19T08:26:04;17.00;;;13.00;;
31730;SDS011;18310;55.586;12.286;2022-08-19T08:29:07;21.95;;;14.05;;
31730;SDS011;18310;55.586;12.286;2022-08-19T08:32:13;21.48;;;13.85;;
31730;SDS011;18310;55.586;12.286;2022-08-19T08:38:24;19.00;;;12.63;;
31730;SDS011;18310;55.586;12.286;2022-08-19T08:41:39;17.02;;;13.23;;
31730;SDS011;18310;55.586;12.286;2022-08-19T08:44:50;20.00;;;13.45;;
31730;SDS011;18310;55.586;12.286;2022-08-19T08:48:03;17.27;;;12.65;;
31730;SDS011;18310;55.586;12.286;2022-08-19T08:51:25;19.43;;;12.13;;
31730;SDS011;18310;55.586;12.286;2022-08-19T08:54:37;22.17;;;13.23;;
31730;SDS011;18310;55.586;12.286;2022-08-19T08:57:57;15.57;;;11.70;;
31730;SDS011;18310;55.586;12.286;2022-08-19T09:01:07;17.15;;;12.38;;
31730;SDS011;18310;55.586;12.286;2022-08-19T09:04:13;12.82;;;10.70;;
31730;SDS011;18310;55.586;12.286;2022-08-19T09:07:21;17.88;;;11.95;;
31730;SDS011;18310;55.586;12.286;2022-08-19T09:10:43;19.40;;;11.57;;
31730;SDS011;18310;55.586;12.286;2022-08-19T09:13:59;15.10;;;10.88;;
31730;SDS011;18310;55.586;12.286;2022-08-19T09:17:33;14.32;;;10.93;;
31730;SDS011;18310;55.586;12.286;2022-08-19T09:20:39;14.77;;;11.15;;
31730;SDS011;18310;55.586;12.286;2022-08-19T09:23:43;18.98;;;11.52;;
31730;SDS011;18310;55.586;12.286;2022-08-19T09:26:52;16.10;;;10.98;;
31730;SDS011;18310;55.586;12.286;2022-08-19T09:29:57;19.17;;;11.93;;
31730;SDS011;18310;55.586;12.286;2022-08-19T09:33:01;17.85;;;10.95;;
31730;SDS011;18310;55.586;12.286;2022-08-19T09:36:06;22.00;;;12.38;;
31730;SDS011;18310;55.586;12.286;2022-08-19T09:39:22;15.32;;;12.63;;
31730;SDS011;18310;55.586;12.286;2022-08-19T09:42:37;17.13;;;13.23;;
31730;SDS011;18310;55.586;12.286;2022-08-19T09:45:50;15.18;;;13.07;;
31730;SDS011;18310;55.586;12.286;2022-08-19T09:48:56;22.77;;;12.18;;
31730;SDS011;18310;55.586;12.286;2022-08-19T09:52:07;19.65;;;11.98;;
31730;SDS011;18310;55.586;12.286;2022-08-19T09:55:13;18.58;;;12.60;;
31730;SDS011;18310;55.586;12.286;2022-08-19T09:58:19;18.52;;;11.85;;
31730;SDS011;18310;55.586;12.286;2022-08-19T10:01:27;13.30;;;11.30;;
31730;SDS011;18310;55.586;12.286;2022-08-19T10:04:33;15.60;;;12.65;;
31730;SDS011;18310;55.586;12.286;2022-08-19T10:07:53;17.70;;;12.65;;
31730;SDS011;18310;55.586;12.286;2022-08-19T10:10:57;16.15;;;13.60;;
31730;SDS011;18310;55.586;12.286;2022-08-19T10:14:24;19.40;;;13.65;;
31730;SDS011;18310;55.586;12.286;2022-08-19T10:17:27;17.83;;;12.68;;
31730;SDS011;18310;55.586;12.286;2022-08-19T10:20:33;16.17;;;12.45;;
31730;SDS011;18310;55.586;12.286;2022-08-19T10:23:38;16.02;;;12.38;;
31730;SDS011;18310;55.586;12.286;2022-08-19T10:26:46;15.13;;;12.80;;
31730;SDS011;18310;55.586;12.286;2022-08-19T10:30:00;14.82;;;13.00;;
31730;SDS011;18310;55.586;12.286;2022-08-19T10:33:04;20.58;;;14.70;;
31730;SDS011;18310;55.586;12.286;2022-08-19T10:36:13;18.98;;;14.63;;
31730;SDS011;18310;55.586;12.286;2022-08-19T10:39:19;18.42;;;14.10;;
31730;SDS011;18310;55.586;12.286;2022-08-19T10:45:28;22.40;;;14.93;;
31730;SDS011;18310;55.586;12.286;2022-08-19T10:48:33;25.27;;;15.25;;
31730;SDS011;18310;55.586;12.286;2022-08-19T10:51:37;20.08;;;14.73;;
31730;SDS011;18310;55.586;12.286;2022-08-19T10:54:59;24.75;;;15.70;;
31730;SDS011;18310;55.586;12.286;2022-08-19T10:58:21;18.13;;;15.13;;
31730;SDS011;18310;55.586;12.286;2022-08-19T11:01:26;19.55;;;14.02;;
31730;SDS011;18310;55.586;12.286;2022-08-19T11:04:31;18.70;;;15.10;;
31730;SDS011;18310;55.586;12.286;2022-08-19T11:07:36;22.40;;;16.75;;
31730;SDS011;18310;55.586;12.286;2022-08-19T11:10:41;21.10;;;16.60;;
31730;SDS011;18310;55.586;12.286;2022-08-19T11:13:50;16.98;;;14.48;;
31730;SDS011;18310;55.586;12.286;2022-08-19T11:16:56;20.45;;;15.10;;
31730;SDS011;18310;55.586;12.286;2022-08-19T11:19:59;17.45;;;14.90;;
31730;SDS011;18310;55.586;12.286;2022-08-19T11:23:05;17.63;;;15.52;;
31730;SDS011;18310;55.586;12.286;2022-08-19T11:26:08;20.10;;;15.60;;
31730;SDS011;18310;55.586;12.286;2022-08-19T11:29:12;24.27;;;17.25;;
31730;SDS011;18310;55.586;12.286;2022-08-19T11:38:24;19.00;;;8.75;;
31730;SDS011;18310;55.586;12.286;2022-08-19T11:44:31;16.73;;;8.57;;
31730;SDS011;18310;55.586;12.286;2022-08-19T11:47:38;14.10;;;8.23;;
31730;SDS011;18310;55.586;12.286;2022-08-19T11:50:41;10.95;;;7.85;;
31730;SDS011;18310;55.586;12.286;2022-08-19T11:53:45;13.18;;;8.55;;
31730;SDS011;18310;55.586;12.286;2022-08-19T11:56:48;11.82;;;8.30;;
31730;SDS011;18310;55.586;12.286;2022-08-19T11:59:51;12.88;;;9.73;;
31730;SDS011;18310;55.586;12.286;2022-08-19T12:02:56;14.57;;;10.25;;
31730;SDS011;18310;55.586;12.286;2022-08-19T12:06:02;15.57;;;12.40;;
31730;SDS011;18310;55.586;12.286;2022-08-19T12:09:08;19.30;;;13.60;;
31730;SDS011;18310;55.586;12.286;2022-08-19T12:12:12;16.13;;;13.38;;
31730;SDS011;18310;55.586;12.286;2022-08-19T12:15:16;16.40;;;12.35;;
31730;SDS011;18310;55.586;12.286;2022-08-19T12:18:20;15.02;;;11.85;;
31730;SDS011;18310;55.586;12.286;2022-08-19T12:21:26;16.35;;;12.40;;
31730;SDS011;18310;55.586;12.286;2022-08-19T12:24:30;11.68;;;10.23;;
31730;SDS011;18310;55.586;12.286;2022-08-19T12:27:35;12.00;;;9.30;;
31730;SDS011;18310;55.586;12.286;2022-08-19T12:30:42;15.25;;;10.93;;
31730;SDS011;18310;55.586;12.286;2022-08-19T12:33:47;13.57;;;11.38;;
31730;SDS011;18310;55.586;12.286;2022-08-19T12:36:50;12.07;;;9.05;;
31730;SDS011;18310;55.586;12.286;2022-08-19T12:39:53;11.82;;;9.43;;
31730;SDS011;18310;55.586;12.286;2022-08-19T12:42:56;12.25;;;8.57;;
31730;SDS011;18310;55.586;12.286;2022-08-19T12:46:00;14.10;;;7.95;;
31730;SDS011;18310;55.586;12.286;2022-08-19T12:49:06;11.15;;;8.80;;
31730;SDS011;18310;55.586;12.286;2022-08-19T12:52:30;10.15;;;8.10;;
31730;SDS011;18310;55.586;12.286;2022-08-19T12:55:33;11.30;;;7.30;;
31730;SDS011;18310;55.586;12.286;2022-08-19T12:58:36;9.93;;;7.60;;
31730;SDS011;18310;55.586;12.286;2022-08-19T13:01:39;15.02;;;8.23;;
31730;SDS011;18310;55.586;12.286;2022-08-19T13:04:44;7.70;;;6.90;;
31730;SDS011;18310;55.586;12.286;2022-08-19T13:07:48;10.23;;;7.28;;
31730;SDS011;18310;55.586;12.286;2022-08-19T13:10:53;7.97;;;6.38;;
31730;SDS011;18310;55.586;12.286;2022-08-19T13:13:57;10.00;;;7.30;;
31730;SDS011;18310;55.586;12.286;2022-08-19T13:17:03;10.93;;;7.75;;
31730;SDS011;18310;55.586;12.286;2022-08-19T13:20:08;12.27;;;8.52;;
31730;SDS011;18310;55.586;12.286;2022-08-19T13:23:13;11.15;;;7.45;;
31730;SDS011;18310;55.586;12.286;2022-08-19T13:26:17;7.18;;;6.20;;
31730;SDS011;18310;55.586;12.286;2022-08-19T13:29:22;9.73;;;6.78;;
31730;SDS011;18310;55.586;12.286;2022-08-19T13:32:43;8.32;;;6.10;;
31730;SDS011;18310;55.586;12.286;2022-08-19T13:36:05;8.95;;;6.13;;
31730;SDS011;18310;55.586;12.286;2022-08-19T13:39:11;8.40;;;5.93;;
31730;SDS011;18310;55.586;12.286;2022-08-19T13:42:14;11.07;;;6.57;;
31730;SDS011;18310;55.586;12.286;2022-08-19T13:45:20;9.75;;;5.70;;
31730;SDS011;18310;55.586;12.286;2022-08-19T13:48:26;8.13;;;5.88;;
31730;SDS011;18310;55.586;12.286;2022-08-19T13:51:30;10.38;;;6.25;;
31730;SDS011;18310;55.586;12.286;2022-08-19T13:54:34;8.70;;;5.85;;
31730;SDS011;18310;55.586;12.286;2022-08-19T13:57:37;6.43;;;5.20;;
31730;SDS011;18310;55.586;12.286;2022-08-19T14:00:42;7.53;;;4.75;;
31730;SDS011;18310;55.586;12.286;2022-08-19T14:03:48;7.72;;;5.20;;
31730;SDS011;18310;55.586;12.286;2022-08-19T14:06:52;7.30;;;5.60;;
31730;SDS011;18310;55.586;12.286;2022-08-19T14:09:56;10.32;;;6.20;;
31730;SDS011;18310;55.586;12.286;2022-08-19T14:13:00;6.57;;;5.70;;
31730;SDS011;18310;55.586;12.286;2022-08-19T14:16:06;6.25;;;4.85;;
31730;SDS011;18310;55.586;12.286;2022-08-19T14:19:11;10.05;;;5.25;;
31730;SDS011;18310;55.586;12.286;2022-08-19T14:22:16;8.20;;;5.47;;
31730;SDS011;18310;55.586;12.286;2022-08-19T14:25:23;8.30;;;5.85;;
31730;SDS011;18310;55.586;12.286;2022-08-19T14:28:29;12.10;;;6.13;;
31730;SDS011;18310;55.586;12.286;2022-08-19T14:31:32;7.10;;;5.95;;
31730;SDS011;18310;55.586;12.286;2022-08-19T14:34:36;8.40;;;6.68;;
31730;SDS011;18310;55.586;12.286;2022-08-19T14:37:41;10.95;;;6.70;;
31730;SDS011;18310;55.586;12.286;2022-08-19T14:40:46;9.73;;;7.32;;
31730;SDS011;18310;55.586;12.286;2022-08-19T14:43:50;11.77;;;7.72;;
31730;SDS011;18310;55.586;12.286;2022-08-19T14:46:55;10.75;;;8.20;;
31730;SDS011;18310;55.586;12.286;2022-08-19T14:49:59;14.20;;;10.93;;
31730;SDS011;18310;55.586;12.286;2022-08-19T14:53:07;15.82;;;11.85;;
31730;SDS011;18310;55.586;12.286;2022-08-19T14:56:14;17.45;;;12.63;;
31730;SDS011;18310;55.586;12.286;2022-08-19T14:59:21;16.75;;;13.57;;
31730;SDS011;18310;55.586;12.286;2022-08-19T15:02:24;16.90;;;13.15;;
31730;SDS011;18310;55.586;12.286;2022-08-19T15:05:35;15.85;;;12.07;;
31730;SDS011;18310;55.586;12.286;2022-08-19T15:08:41;19.33;;;12.93;;
31730;SDS011;18310;55.586;12.286;2022-08-19T15:11:46;13.40;;;11.38;;
31730;SDS011;18310;55.586;12.286;2022-08-19T15:14:51;14.95;;;12.02;;
31730;SDS011;18310;55.586;12.286;2022-08-19T15:17:57;17.50;;;12.60;;
31730;SDS011;18310;55.586;12.286;2022-08-19T15:21:03;18.92;;;13.95;;
31730;SDS011;18310;55.586;12.286;2022-08-19T15:24:09;17.08;;;12.93;;
31730;SDS011;18310;55.586;12.286;2022-08-19T15:27:14;16.45;;;13.25;;
31730;SDS011;18310;55.586;12.286;2022-08-19T15:30:19;16.65;;;12.98;;
31730;SDS011;18310;55.586;12.286;2022-08-19T15:33:25;16.15;;;11.73;;
31730;SDS011;18310;55.586;12.286;2022-08-19T15:36:29;18.70;;;12.35;;
31730;SDS011;18310;55.586;12.286;2022-08-19T15:39:34;18.17;;;14.13;;
31730;SDS011;18310;55.586;12.286;2022-08-19T15:42:38;14.93;;;12.07;;
31730;SDS011;18310;55.586;12.286;2022-08-19T15:45:44;18.88;;;13.27;;
31730;SDS011;18310;55.586;12.286;2022-08-19T15:48:50;16.85;;;13.02;;
31730;SDS011;18310;55.586;12.286;2022-08-19T15:52:00;17.90;;;13.07;;
31730;SDS011;18310;55.586;12.286;2022-08-19T15:55:05;18.05;;;13.18;;
31730;SDS011;18310;55.586;12.286;2022-08-19T15:58:16;15.55;;;13.10;;
31730;SDS011;18310;55.586;12.286;2022-08-19T16:01:37;16.48;;;13.63;;
31730;SDS011;18310;55.586;12.286;2022-08-19T16:04:58;17.90;;;13.98;;
31730;SDS011;18310;55.586;12.286;2022-08-19T16:08:19;19.48;;;14.23;;
31730;SDS011;18310;55.586;12.286;2022-08-19T16:11:25;17.10;;;13.32;;
31730;SDS011;18310;55.586;12.286;2022-08-19T16:14:33;15.45;;;11.75;;
31730;SDS011;18310;55.586;12.286;2022-08-19T16:17:39;14.38;;;11.82;;
31730;SDS011;18310;55.586;12.286;2022-08-19T16:20:43;17.33;;;13.43;;
31730;SDS011;18310;55.586;12.286;2022-08-19T16:23:47;19.30;;;13.40;;
31730;SDS011;18310;55.586;12.286;2022-08-19T16:26:53;17.02;;;12.05;;
31730;SDS011;18310;55.586;12.286;2022-08-19T16:29:57;17.27;;;12.30;;
31730;SDS011;18310;55.586;12.286;2022-08-19T16:33:00;17.33;;;12.73;;
31730;SDS011;18310;55.586;12.286;2022-08-19T16:36:04;18.02;;;13.27;;
31730;SDS011;18310;55.586;12.286;2022-08-19T16:39:10;15.90;;;13.80;;
31730;SDS011;18310;55.586;12.286;2022-08-19T16:42:16;16.10;;;12.65;;
31730;SDS011;18310;55.586;12.286;2022-08-19T16:45:20;17.13;;;12.90;;
31730;SDS011;18310;55.586;12.286;2022-08-19T16:48:26;17.38;;;13.05;;
31730;SDS011;18310;55.586;12.286;2022-08-19T16:51:31;13.68;;;10.27;;
31730;SDS011;18310;55.586;12.286;2022-08-19T16:54:35;13.80;;;11.13;;
31730;SDS011;18310;55.586;12.286;2022-08-19T16:57:40;14.40;;;11.57;;
31730;SDS011;18310;55.586;12.286;2022-08-19T17:00:44;14.90;;;12.10;;
31730;SDS011;18310;55.586;12.286;2022-08-19T17:03:48;17.20;;;12.38;;
31730;SDS011;18310;55.586;12.286;2022-08-19T17:06:53;16.73;;;12.13;;
31730;SDS011;18310;55.586;12.286;2022-08-19T17:09:56;14.90;;;12.15;;
31730;SDS011;18310;55.586;12.286;2022-08-19T17:13:01;15.98;;;10.82;;
31730;SDS011;18310;55.586;12.286;2022-08-19T17:16:04;16.95;;;12.65;;
31730;SDS011;18310;55.586;12.286;2022-08-19T17:19:08;16.77;;;12.73;;
31730;SDS011;18310;55.586;12.286;2022-08-19T17:22:11;14.27;;;11.10;;
31730;SDS011;18310;55.586;12.286;2022-08-19T17:25:15;18.35;;;12.20;;
31730;SDS011;18310;55.586;12.286;2022-08-19T17:28:21;17.25;;;13.38;;
31730;SDS011;18310;55.586;12.286;2022-08-19T17:31:28;17.95;;;12.70;;
31730;SDS011;18310;55.586;12.286;2022-08-19T17:34:33;19.02;;;12.90;;
31730;SDS011;18310;55.586;12.286;2022-08-19T17:37:36;18.15;;;13.38;;
31730;SDS011;18310;55.586;12.286;2022-08-19T17:40:40;19.67;;;12.98;;
31730;SDS011;18310;55.586;12.286;2022-08-19T17:43:45;16.92;;;11.70;;
31730;SDS011;18310;55.586;12.286;2022-08-19T17:46:48;17.08;;;12.02;;
31730;SDS011;18310;55.586;12.286;2022-08-19T17:49:53;15.77;;;11.07;;
31730;SDS011;18310;55.586;12.286;2022-08-19T17:52:57;20.00;;;13.23;;
31730;SDS011;18310;55.586;12.286;2022-08-19T17:56:01;18.73;;;12.88;;
31730;SDS011;18310;55.586;12.286;2022-08-19T17:59:06;21.58;;;12.75;;
31730;SDS011;18310;55.586;12.286;2022-08-19T18:02:14;17.67;;;13.00;;
31730;SDS011;18310;55.586;12.286;2022-08-19T18:05:23;17.90;;;13.40;;
31730;SDS011;18310;55.586;12.286;2022-08-19T18:08:30;20.98;;;13.52;;
31730;SDS011;18310;55.586;12.286;2022-08-19T18:11:35;20.00;;;13.57;;
31730;SDS011;18310;55.586;12.286;2022-08-19T18:14:40;17.58;;;13.13;;
31730;SDS011;18310;55.586;12.286;2022-08-19T18:17:44;18.48;;;12.90;;
31730;SDS011;18310;55.586;12.286;2022-08-19T18:20:48;14.80;;;11.85;;
31730;SDS011;18310;55.586;12.286;2022-08-19T18:23:51;15.77;;;11.63;;